Time;durP1;ratioP1;P1;durP2;ratioP2;P2;SDS_P1;SDS_P2;PMS_P1;PMS_P2;Temp;Humidity;BMP_temperature;BMP_pressure;BME280_temperature;BME280_humidity;BME280_pressure;Samples;Min_cycle;Max_cycle;Signal;HPM_P1;HPM_P2
2023/04/26 00:02:03;;;;;;;0.63;0.63;;;6.30;99.90;;;;;;5048219;28;20729;-83
2023/04/26 00:04:30;;;;;;;0.50;0.50;;;6.20;99.90;;;;;;5058421;28;20307;-83
2023/04/26 00:06:56;;;;;;;8.27;0.97;;;6.10;99.90;;;;;;5048435;28;20311;-83
2023/04/26 00:09:22;;;;;;;0.30;0.30;;;6.00;99.90;;;;;;5051271;28;20233;-83
2023/04/26 00:11:48;;;;;;;0.97;0.50;;;5.90;99.90;;;;;;5050935;28;20205;-84
2023/04/26 00:14:14;;;;;;;0.30;0.30;;;5.90;99.90;;;;;;5050348;28;20198;-83
2023/04/26 00:16:39;;;;;;;0.20;0.20;;;5.90;99.90;;;;;;5050342;28;20350;-83
2023/04/26 00:19:05;;;;;;;0.30;0.30;;;6.00;99.90;;;;;;5049910;28;20230;-83
2023/04/26 00:21:31;;;;;;;0.40;0.40;;;6.00;99.90;;;;;;5051610;28;20293;-84
2023/04/26 00:23:57;;;;;;;0.53;0.53;;;6.00;99.90;;;;;;5039618;28;20678;-83
2023/04/26 00:26:23;;;;;;;0.47;0.47;;;6.00;99.90;;;;;;5042128;28;20189;-84
2023/04/26 00:28:49;;;;;;;16.50;1.07;;;6.00;99.90;;;;;;5048512;28;20221;-83
2023/04/26 00:31:16;;;;;;;1.33;0.70;;;5.90;99.90;;;;;;5049663;27;20678;-83
2023/04/26 00:33:42;;;;;;;3.37;1.13;;;5.90;99.90;;;;;;5049400;28;20292;-84
2023/04/26 00:36:09;;;;;;;0.43;0.43;;;5.90;99.90;;;;;;5041902;28;20897;-83
2023/04/26 00:38:34;;;;;;;0.90;0.90;;;5.90;99.90;;;;;;5049287;28;20189;-83
2023/04/26 00:41:00;;;;;;;0.83;0.63;;;5.90;99.90;;;;;;5050863;28;21216;-83
2023/04/26 00:43:26;;;;;;;0.57;0.57;;;5.80;99.90;;;;;;5050496;28;20324;-84
2023/04/26 00:45:52;;;;;;;0.60;0.60;;;5.80;99.90;;;;;;5048261;28;20376;-83
2023/04/26 00:48:19;;;;;;;0.60;0.60;;;5.90;99.90;;;;;;5053540;28;20244;-84
2023/04/26 00:50:46;;;;;;;0.50;0.50;;;5.90;99.90;;;;;;5049794;28;20197;-84
2023/04/26 00:53:13;;;;;;;0.50;0.50;;;5.90;99.90;;;;;;5033646;28;20299;-84
2023/04/26 00:55:43;;;;;;;0.40;0.40;;;5.90;99.90;;;;;;5050470;28;20236;-83
2023/04/26 00:58:09;;;;;;;3.30;0.50;;;5.90;99.90;;;;;;5049341;27;20690;-83
2023/04/26 01:00:35;;;;;;;0.30;0.30;;;5.90;99.90;;;;;;5041690;28;20340;-84
2023/04/26 01:03:01;;;;;;;1.50;1.40;;;6.00;99.90;;;;;;5048065;28;20991;-83
2023/04/26 01:05:26;;;;;;;3.40;1.40;;;6.10;99.90;;;;;;5050132;28;20312;-84
2023/04/26 01:07:52;;;;;;;0.43;0.43;;;6.00;99.90;;;;;;5030248;28;20233;-83
2023/04/26 01:10:18;;;;;;;0.70;0.70;;;6.00;99.90;;;;;;5032372;28;20221;-83
2023/04/26 01:12:44;;;;;;;1.80;0.73;;;5.90;99.90;;;;;;5048852;28;20674;-84
2023/04/26 01:15:10;;;;;;;0.60;0.60;;;5.80;99.90;;;;;;5048082;28;20430;-83
2023/04/26 01:17:36;;;;;;;0.57;0.57;;;5.90;99.90;;;;;;5042306;28;20204;-83
2023/04/26 01:20:03;;;;;;;0.30;0.30;;;6.00;99.90;;;;;;5048403;28;20213;-84
2023/04/26 01:22:33;;;;;;;0.40;0.40;;;6.10;99.90;;;;;;5052546;27;20275;-83
2023/04/26 01:25:00;;;;;;;0.30;0.30;;;6.20;99.90;;;;;;5052032;28;20233;-83
2023/04/26 01:27:26;;;;;;;0.83;0.80;;;6.20;99.90;;;;;;5052079;28;20225;-83
2023/04/26 01:29:52;;;;;;;0.30;0.30;;;6.20;99.90;;;;;;5056075;27;20622;-83
2023/04/26 01:32:18;;;;;;;0.30;0.30;;;6.20;99.90;;;;;;5053358;28;20968;-83
2023/04/26 01:34:44;;;;;;;0.93;0.73;;;6.20;99.90;;;;;;5044120;28;20217;-84
2023/04/26 01:37:10;;;;;;;0.50;0.50;;;6.10;99.90;;;;;;5051000;28;20214;-84
2023/04/26 01:39:36;;;;;;;1.20;1.07;;;6.10;99.90;;;;;;5049738;28;20678;-85
2023/04/26 01:42:03;;;;;;;0.40;0.40;;;6.00;99.90;;;;;;5047979;28;20337;-84
2023/04/26 01:44:29;;;;;;;0.30;0.30;;;5.90;99.90;;;;;;5048040;28;21072;-83
2023/04/26 01:46:55;;;;;;;0.37;0.37;;;5.90;99.90;;;;;;5052224;27;20229;-84
2023/04/26 01:49:21;;;;;;;1.27;1.27;;;5.90;99.90;;;;;;5054393;27;20226;-84
2023/04/26 01:51:46;;;;;;;1.03;0.97;;;5.80;99.90;;;;;;5050887;28;20226;-83
2023/04/26 01:54:12;;;;;;;0.53;0.53;;;5.80;99.90;;;;;;5051585;28;20997;-83
2023/04/26 01:56:38;;;;;;;0.60;0.60;;;5.70;99.90;;;;;;5056230;28;20966;-83
2023/04/26 01:59:04;;;;;;;0.43;0.43;;;5.90;99.90;;;;;;5051312;27;21212;-83
2023/04/26 02:01:30;;;;;;;0.73;0.73;;;5.80;99.90;;;;;;5053238;28;20287;-83
2023/04/26 02:03:55;;;;;;;0.70;0.70;;;5.80;99.90;;;;;;5052689;28;20233;-84
2023/04/26 02:06:21;;;;;;;0.30;0.30;;;5.70;99.90;;;;;;5044017;28;20237;-83
2023/04/26 02:08:48;;;;;;;0.57;0.57;;;5.50;99.90;;;;;;5043842;27;20978;-82
2023/04/26 02:11:13;;;;;;;0.87;0.87;;;5.30;99.90;;;;;;5050858;28;21002;-83
2023/04/26 02:13:39;;;;;;;0.40;0.40;;;5.10;99.90;;;;;;5049689;27;20233;-83
2023/04/26 02:16:06;;;;;;;0.20;0.20;;;5.10;99.90;;;;;;5050593;27;20313;-83
2023/04/26 02:18:33;;;;;;;0.30;0.30;;;5.00;99.90;;;;;;5052246;28;20350;-83
2023/04/26 02:20:59;;;;;;;0.40;0.40;;;5.10;99.90;;;;;;5051147;28;20190;-83
2023/04/26 02:23:25;;;;;;;0.40;0.40;;;5.20;99.90;;;;;;5049452;28;20216;-84
2023/04/26 02:25:50;;;;;;;0.53;0.53;;;5.20;99.90;;;;;;5050899;28;20721;-82
2023/04/26 02:28:16;;;;;;;0.37;0.37;;;5.10;99.90;;;;;;5049269;28;20210;-83
2023/04/26 02:30:43;;;;;;;1.17;1.10;;;5.10;99.90;;;;;;5048820;28;20217;-83
2023/04/26 02:33:09;;;;;;;0.47;0.47;;;5.10;99.90;;;;;;5054280;27;20225;-82
2023/04/26 02:35:36;;;;;;;1.30;1.20;;;5.20;99.90;;;;;;5043407;28;20645;-83
2023/04/26 02:38:02;;;;;;;0.53;0.53;;;5.20;99.90;;;;;;5053553;27;20217;-84
2023/04/26 02:40:29;;;;;;;0.37;0.37;;;5.30;99.90;;;;;;5051249;28;20216;-83
2023/04/26 02:42:55;;;;;;;2.30;0.60;;;5.30;99.90;;;;;;5046333;28;20229;-82
2023/04/26 02:45:20;;;;;;;0.37;0.37;;;5.30;99.90;;;;;;5052812;28;20694;-82
2023/04/26 02:47:46;;;;;;;0.77;0.77;;;5.20;99.90;;;;;;5053918;28;20209;-84
2023/04/26 02:50:12;;;;;;;0.63;0.63;;;5.10;99.90;;;;;;5042604;28;21104;-84
2023/04/26 02:52:38;;;;;;;0.30;0.30;;;5.10;99.90;;;;;;5049625;28;20366;-83
2023/04/26 02:55:04;;;;;;;0.50;0.50;;;5.20;99.90;;;;;;5050683;28;20226;-83
2023/04/26 02:57:31;;;;;;;0.30;0.30;;;5.30;99.90;;;;;;5047815;28;20214;-84
2023/04/26 02:59:57;;;;;;;1.37;1.37;;;5.40;99.90;;;;;;5049821;27;20182;-82
2023/04/26 03:02:23;;;;;;;0.97;0.97;;;5.50;99.90;;;;;;5043583;28;20204;-83
2023/04/26 03:04:49;;;;;;;0.40;0.40;;;5.50;99.90;;;;;;5051046;28;20229;-83
2023/04/26 03:07:15;;;;;;;1.33;1.23;;;5.30;99.90;;;;;;5053743;28;20252;-84
2023/04/26 03:09:41;;;;;;;3.63;1.00;;;5.20;99.90;;;;;;5056066;28;20326;-84
2023/04/26 03:12:07;;;;;;;1.40;1.30;;;5.20;99.90;;;;;;5051841;27;20229;-84
2023/04/26 03:14:34;;;;;;;0.40;0.40;;;5.20;99.90;;;;;;5050113;28;20205;-85
2023/04/26 03:17:00;;;;;;;1.27;1.27;;;5.30;99.90;;;;;;5053024;28;20606;-85
2023/04/26 03:19:27;;;;;;;1.80;0.83;;;5.30;99.90;;;;;;5053162;27;20225;-84
2023/04/26 03:21:53;;;;;;;0.60;0.60;;;5.30;99.90;;;;;;5051565;27;20225;-84
2023/04/26 03:24:19;;;;;;;0.83;0.83;;;5.30;99.90;;;;;;5048727;28;20237;-84
2023/04/26 03:26:44;;;;;;;0.30;0.30;;;5.30;99.90;;;;;;5049890;28;20848;-83
2023/04/26 03:29:11;;;;;;;0.70;0.70;;;5.20;99.90;;;;;;5049409;28;20765;-82
2023/04/26 03:31:37;;;;;;;0.33;0.33;;;5.20;99.90;;;;;;5053680;28;20294;-82
2023/04/26 03:34:03;;;;;;;0.80;0.80;;;5.10;99.90;;;;;;5047486;28;20712;-83
2023/04/26 03:36:29;;;;;;;0.60;0.60;;;5.10;99.90;;;;;;5050899;28;21184;-84
2023/04/26 03:38:55;;;;;;;0.90;0.90;;;5.10;99.90;;;;;;5053681;28;20230;-83
2023/04/26 03:41:21;;;;;;;0.40;0.40;;;5.10;99.90;;;;;;5048095;28;20213;-83
2023/04/26 03:43:47;;;;;;;0.63;0.63;;;5.00;99.90;;;;;;5051322;28;20213;-84
2023/04/26 03:46:13;;;;;;;2.77;0.57;;;5.00;99.90;;;;;;5048539;28;20306;-83
2023/04/26 03:48:39;;;;;;;0.40;0.40;;;5.00;99.90;;;;;;5047286;28;20218;-83
2023/04/26 03:51:05;;;;;;;0.60;0.60;;;4.90;99.90;;;;;;5049371;28;20190;-83
2023/04/26 03:53:31;;;;;;;0.53;0.50;;;4.90;99.90;;;;;;5051246;28;20193;-83
2023/04/26 03:55:57;;;;;;;0.50;0.50;;;4.80;99.90;;;;;;5052048;27;20329;-84
2023/04/26 03:58:27;;;;;;;0.30;0.30;;;4.80;99.90;;;;;;5054296;27;20225;-82
2023/04/26 04:00:56;;;;;;;7.73;0.80;;;4.80;99.90;;;;;;5049951;28;20262;-84
2023/04/26 04:03:22;;;;;;;0.60;0.60;;;4.70;99.90;;;;;;5046976;28;20221;-84
2023/04/26 04:05:48;;;;;;;1.17;1.10;;;4.70;99.90;;;;;;5049426;27;20220;-84
2023/04/26 04:08:14;;;;;;;0.57;0.57;;;4.70;99.90;;;;;;5051481;28;20233;-84
2023/04/26 04:10:41;;;;;;;0.60;0.60;;;4.70;99.90;;;;;;5038916;28;20304;-84
2023/04/26 04:13:07;;;;;;;0.53;0.53;;;4.70;99.90;;;;;;5041516;28;20233;-84
2023/04/26 04:15:33;;;;;;;0.60;0.60;;;4.70;99.90;;;;;;5048099;28;20240;-83
2023/04/26 04:17:59;;;;;;;0.43;0.43;;;4.70;99.90;;;;;;5044618;28;20477;-83
2023/04/26 04:20:24;;;;;;;0.30;0.30;;;4.60;99.90;;;;;;5045997;28;20580;-84
2023/04/26 04:22:50;;;;;;;0.50;0.50;;;4.60;99.90;;;;;;5044969;28;20284;-82
2023/04/26 04:25:16;;;;;;;2.03;1.03;;;4.70;99.90;;;;;;5048350;28;20270;-84
2023/04/26 04:27:42;;;;;;;0.30;0.30;;;4.80;99.90;;;;;;5042009;28;20220;-83
2023/04/26 04:30:08;;;;;;;1.33;1.33;;;4.90;99.90;;;;;;5046453;27;20642;-82
2023/04/26 04:32:35;;;;;;;0.83;0.83;;;5.10;99.90;;;;;;5053650;28;20190;-83
2023/04/26 04:35:01;;;;;;;0.40;0.40;;;5.30;99.90;;;;;;5046917;28;20233;-82
2023/04/26 04:37:27;;;;;;;0.60;0.60;;;5.40;99.90;;;;;;5039999;28;20346;-83
2023/04/26 04:39:54;;;;;;;0.53;0.53;;;5.30;99.90;;;;;;5047487;28;20672;-83
2023/04/26 04:42:20;;;;;;;0.80;0.80;;;5.30;99.90;;;;;;5062719;28;20214;-83
2023/04/26 04:44:46;;;;;;;0.47;0.47;;;5.30;99.90;;;;;;5047264;28;20224;-84
2023/04/26 04:47:12;;;;;;;0.50;0.50;;;5.20;99.90;;;;;;5038778;28;20217;-83
2023/04/26 04:49:38;;;;;;;0.80;0.80;;;5.20;99.90;;;;;;5043254;28;20260;-84
2023/04/26 04:52:05;;;;;;;0.53;0.53;;;5.10;99.90;;;;;;5043934;28;20891;-83
2023/04/26 04:54:31;;;;;;;0.87;0.87;;;5.10;99.90;;;;;;5042473;28;20250;-83
2023/04/26 04:56:56;;;;;;;0.53;0.53;;;5.10;99.90;;;;;;5046839;28;20764;-83
2023/04/26 04:59:22;;;;;;;0.97;0.97;;;5.10;99.90;;;;;;5052134;28;20190;-83
2023/04/26 05:01:49;;;;;;;0.50;0.50;;;5.10;99.90;;;;;;5052559;28;20225;-84
2023/04/26 05:04:15;;;;;;;1.50;1.40;;;5.10;99.90;;;;;;5043840;28;20236;-83
2023/04/26 05:06:40;;;;;;;0.30;0.30;;;5.00;99.90;;;;;;5051130;27;20245;-83
2023/04/26 05:09:08;;;;;;;0.83;0.83;;;5.00;99.90;;;;;;5054799;28;20653;-83
2023/04/26 05:11:34;;;;;;;1.17;1.17;;;5.10;99.90;;;;;;5050791;28;20194;-83
2023/04/26 05:14:00;;;;;;;0.37;0.37;;;5.10;99.90;;;;;;5057917;27;20311;-82
2023/04/26 05:16:26;;;;;;;0.60;0.60;;;5.20;99.90;;;;;;5055882;27;20235;-83
2023/04/26 05:18:52;;;;;;;0.40;0.40;;;5.20;99.90;;;;;;5049877;28;20220;-83
2023/04/26 05:21:18;;;;;;;0.40;0.40;;;5.30;99.90;;;;;;5053847;27;20233;-84
2023/04/26 05:23:43;;;;;;;0.30;0.30;;;5.40;99.90;;;;;;5051605;28;20214;-84
2023/04/26 05:26:14;;;;;;;0.40;0.40;;;5.60;99.90;;;;;;5053431;28;20230;-84
2023/04/26 05:28:40;;;;;;;0.30;0.30;;;5.80;99.90;;;;;;5055453;27;20221;-84
2023/04/26 05:31:08;;;;;;;0.33;0.33;;;5.90;99.90;;;;;;5065581;28;20752;-84
2023/04/26 05:33:34;;;;;;;0.70;0.70;;;5.90;99.90;;;;;;5052815;28;20619;-83
2023/04/26 05:36:00;;;;;;;0.80;0.80;;;6.00;99.90;;;;;;5051323;28;20647;-83
2023/04/26 05:38:26;;;;;;;0.60;0.60;;;6.20;99.90;;;;;;5052570;28;20224;-83
2023/04/26 05:40:52;;;;;;;0.40;0.40;;;6.20;99.90;;;;;;5050099;28;20369;-84
2023/04/26 05:43:18;;;;;;;0.40;0.40;;;6.10;99.90;;;;;;5055381;28;20679;-85
2023/04/26 05:45:51;;;;;;;0.83;0.83;;;6.10;99.90;;;;;;5051953;28;20245;-83
2023/04/26 05:48:17;;;;;;;0.83;0.83;;;6.20;99.90;;;;;;5054166;28;20253;-84
2023/04/26 05:50:42;;;;;;;0.57;0.53;;;6.30;99.90;;;;;;5052248;28;21033;-82
2023/04/26 05:53:08;;;;;;;0.33;0.33;;;6.50;99.90;;;;;;5052335;28;20217;-83
2023/04/26 05:55:34;;;;;;;1.27;1.13;;;6.80;99.90;;;;;;5051461;28;20298;-83
2023/04/26 05:57:59;;;;;;;0.50;0.50;;;8.40;99.90;;;;;;5048231;28;20636;-82
2023/04/26 06:00:25;;;;;;;0.90;0.63;;;10.70;99.90;;;;;;5048560;28;20230;-82
2023/04/26 06:02:54;;;;;;;0.90;0.70;;;11.60;99.90;;;;;;5052269;27;20190;-82
2023/04/26 06:05:20;;;;;;;1.37;1.27;;;10.70;99.90;;;;;;5053307;28;20582;-82
2023/04/26 06:07:46;;;;;;;1.60;1.50;;;9.70;99.90;;;;;;5048728;28;20237;-80
2023/04/26 06:10:15;;;;;;;1.53;1.43;;;9.00;99.90;;;;;;5046080;28;20226;-81
2023/04/26 06:12:41;;;;;;;2.17;1.00;;;8.40;99.90;;;;;;5052481;27;20217;-81
2023/04/26 06:15:07;;;;;;;0.83;0.83;;;7.70;99.90;;;;;;5044248;27;21146;-82
2023/04/26 06:17:33;;;;;;;0.53;0.53;;;7.40;99.90;;;;;;5049571;28;20209;-81
2023/04/26 06:19:59;;;;;;;3.60;0.60;;;7.30;99.90;;;;;;5049610;28;20217;-82
2023/04/26 06:22:24;;;;;;;0.47;0.47;;;7.50;99.90;;;;;;5042930;28;20278;-81
2023/04/26 06:24:50;;;;;;;0.93;0.93;;;7.50;99.90;;;;;;5049551;27;20233;-82
2023/04/26 06:27:16;;;;;;;0.40;0.40;;;7.80;99.90;;;;;;5050067;28;20309;-82
2023/04/26 06:29:42;;;;;;;1.30;0.50;;;8.00;99.90;;;;;;5044640;28;21117;-82
2023/04/26 06:32:08;;;;;;;1.23;1.17;;;8.30;99.90;;;;;;5049788;28;20231;-82
2023/04/26 06:34:35;;;;;;;1.33;0.77;;;9.20;99.90;;;;;;5051702;28;20641;-82
2023/04/26 06:37:01;;;;;;;0.40;0.40;;;11.20;99.90;;;;;;5042574;28;20712;-82
2023/04/26 06:39:27;;;;;;;0.60;0.60;;;10.80;99.90;;;;;;5051896;28;20209;-82
2023/04/26 06:41:53;;;;;;;0.70;0.70;;;10.60;99.90;;;;;;5050736;28;20186;-84
2023/04/26 06:44:18;;;;;;;1.30;0.80;;;11.20;99.90;;;;;;5042122;28;20218;-84
2023/04/26 06:46:44;;;;;;;0.30;0.30;;;12.40;99.90;;;;;;5042167;28;20225;-83
2023/04/26 06:49:10;;;;;;;0.97;0.63;;;13.10;99.90;;;;;;5046798;28;20217;-83
2023/04/26 06:51:36;;;;;;;0.67;0.67;;;13.70;99.90;;;;;;5042110;28;20578;-83
2023/04/26 06:54:01;;;;;;;0.47;0.47;;;14.30;99.90;;;;;;5064182;28;20190;-83
2023/04/26 06:56:27;;;;;;;1.50;0.97;;;14.20;99.90;;;;;;5052001;28;20185;-83
2023/04/26 06:59:04;;;;;;;0.60;0.60;;;13.30;99.90;;;;;;5081468;28;20225;-83
2023/04/26 07:01:32;;;;;;;2.90;0.77;;;12.10;99.90;;;;;;5046319;28;20213;-83
2023/04/26 07:04:01;;;;;;;1.23;1.13;;;12.50;99.90;;;;;;5047565;27;20243;-84
2023/04/26 07:06:28;;;;;;;1.20;1.00;;;12.30;99.90;;;;;;5048078;28;20216;-81
2023/04/26 07:08:54;;;;;;;0.30;0.30;;;12.30;99.90;;;;;;5046963;27;20375;-84
2023/04/26 07:11:20;;;;;;;4.93;1.23;;;11.20;99.90;;;;;;5050001;28;20194;-82
2023/04/26 07:13:46;;;;;;;0.70;0.70;;;9.90;99.90;;;;;;5051879;27;20210;-84
2023/04/26 07:16:12;;;;;;;0.37;0.37;;;8.30;99.90;;;;;;5052336;27;20721;-86
2023/04/26 07:18:39;;;;;;;0.60;0.60;;;7.70;99.90;;;;;;5051914;28;21023;-83
2023/04/26 07:21:05;;;;;;;0.57;0.57;;;7.60;99.90;;;;;;5050132;28;20922;-82
2023/04/26 07:23:31;;;;;;;5.50;1.17;;;7.20;99.90;;;;;;5050886;28;20186;-83
2023/04/26 07:25:57;;;;;;;5.43;1.37;;;7.00;99.90;;;;;;5052521;28;21182;-84
2023/04/26 07:28:23;;;;;;;0.40;0.40;;;7.10;99.90;;;;;;5053326;28;20312;-83
2023/04/26 07:30:49;;;;;;;1.50;1.00;;;6.90;99.90;;;;;;5049544;28;20248;-85
2023/04/26 07:33:15;;;;;;;2.40;1.07;;;6.60;99.90;;;;;;5041743;28;20218;-82
2023/04/26 07:35:42;;;;;;;0.87;0.87;;;6.80;99.90;;;;;;5051868;28;20189;-85
2023/04/26 07:38:09;;;;;;;0.80;0.63;;;7.20;99.90;;;;;;5050293;28;20218;-82
2023/04/26 07:40:35;;;;;;;0.97;0.67;;;7.40;99.90;;;;;;5048273;28;20220;-84
2023/04/26 07:43:01;;;;;;;10.10;1.40;;;7.50;99.90;;;;;;5053046;28;20230;-84
2023/04/26 07:45:27;;;;;;;2.30;1.40;;;7.80;99.90;;;;;;5049798;28;20233;-84
2023/04/26 07:47:53;;;;;;;0.63;0.63;;;8.10;99.90;;;;;;5051520;28;20647;-84
2023/04/26 07:50:19;;;;;;;1.70;0.97;;;8.80;99.90;;;;;;5050771;28;20274;-84
2023/04/26 07:52:45;;;;;;;0.40;0.40;;;10.00;99.90;;;;;;5057593;28;20244;-85
2023/04/26 07:55:11;;;;;;;0.30;0.30;;;10.70;99.90;;;;;;5053202;27;20222;-85
2023/04/26 07:57:37;;;;;;;0.40;0.40;;;10.20;99.90;;;;;;5053327;28;20214;-85
2023/04/26 08:00:08;;;;;;;1.70;1.57;;;10.40;99.90;;;;;;5053087;28;21177;-85
2023/04/26 08:02:34;;;;;;;2.03;1.50;;;11.00;99.90;;;;;;5054877;28;20264;-85
2023/04/26 08:05:01;;;;;;;10.40;0.67;;;11.00;99.90;;;;;;5054390;28;20264;-86
2023/04/26 08:07:27;;;;;;;0.60;0.60;;;10.40;99.90;;;;;;5051842;28;20302;-84
2023/04/26 08:09:53;;;;;;;0.50;0.50;;;9.40;99.90;;;;;;5053096;28;20312;-85
2023/04/26 08:12:19;;;;;;;0.80;0.80;;;9.40;99.90;;;;;;5050174;28;20567;-84
2023/04/26 08:14:45;;;;;;;0.57;0.57;;;9.60;99.90;;;;;;5054428;28;20204;-84
2023/04/26 08:17:11;;;;;;;0.60;0.60;;;9.30;99.90;;;;;;5050681;28;20241;-85
2023/04/26 08:19:37;;;;;;;3.57;0.83;;;9.40;99.90;;;;;;5054842;28;20217;-84
2023/04/26 08:22:03;;;;;;;0.30;0.30;;;9.20;99.90;;;;;;5049826;28;20233;-86
2023/04/26 08:24:28;;;;;;;0.57;0.47;;;9.60;99.90;;;;;;5051247;28;20311;-85
2023/04/26 08:26:54;;;;;;;4.23;1.40;;;9.80;99.90;;;;;;5043904;28;20201;-85
2023/04/26 08:29:22;;;;;;;0.93;0.70;;;10.00;99.90;;;;;;5050449;28;20672;-84
2023/04/26 08:31:47;;;;;;;2.30;1.50;;;10.10;99.90;;;;;;5052096;28;21089;-84
2023/04/26 08:34:13;;;;;;;1.13;0.77;;;9.90;99.90;;;;;;5043734;28;20213;-84
2023/04/26 08:36:43;;;;;;;0.70;0.70;;;9.60;99.90;;;;;;5051498;28;20230;-84
2023/04/26 08:39:08;;;;;;;12.73;1.50;;;9.60;99.90;;;;;;5051221;28;20319;-84
2023/04/26 08:41:52;;;;;;;0.10;0.10;;;9.20;99.90;;;;;;5050508;28;20296;-83
2023/04/26 08:44:22;;;;;;;4.33;0.97;;;8.90;99.90;;;;;;5051299;28;20240;-83
2023/04/26 08:46:51;;;;;;;0.80;0.80;;;8.80;99.90;;;;;;5051945;27;20329;-83
2023/04/26 08:49:16;;;;;;;0.37;0.37;;;8.90;99.90;;;;;;5050630;28;20221;-83
2023/04/26 08:51:45;;;;;;;8.37;0.67;;;9.00;99.90;;;;;;5051449;28;20228;-83
2023/04/26 08:54:11;;;;;;;0.50;0.50;;;9.20;99.90;;;;;;5050603;27;20260;-85
2023/04/26 08:56:38;;;;;;;0.40;0.40;;;9.10;99.90;;;;;;5053128;28;20276;-85
2023/04/26 08:59:04;;;;;;;0.20;0.20;;;9.20;99.90;;;;;;5051527;28;20837;-84
2023/04/26 09:01:32;;;;;;;2.40;0.50;;;9.20;99.90;;;;;;5053554;27;20213;-85
2023/04/26 09:03:58;;;;;;;1.20;0.30;;;9.50;99.90;;;;;;5052625;27;20225;-85
2023/04/26 09:06:26;;;;;;;0.30;0.30;;;9.70;99.90;;;;;;5050535;28;20221;-84
2023/04/26 09:08:55;;;;;;;0.30;0.30;;;9.60;99.90;;;;;;5052966;28;20213;-85
2023/04/26 09:11:21;;;;;;;0.47;0.47;;;9.30;99.90;;;;;;5053516;28;20210;-83
2023/04/26 09:13:47;;;;;;;0.20;0.20;;;8.90;99.90;;;;;;5050407;27;20225;-85
2023/04/26 09:16:13;;;;;;;5.57;0.67;;;8.60;99.90;;;;;;5054910;28;20224;-83
2023/04/26 09:18:56;;;;;;;0.20;0.20;;;8.80;99.90;;;;;;5049430;28;20221;-83
2023/04/26 09:21:22;;;;;;;0.40;0.40;;;8.60;99.90;;;;;;5053144;28;20226;-84
2023/04/26 09:24:06;;;;;;;0.30;0.30;;;8.80;99.90;;;;;;5049027;27;20197;-84
2023/04/26 09:26:31;;;;;;;0.50;0.43;;;8.80;99.90;;;;;;5050565;28;20316;-83
2023/04/26 09:29:15;;;;;;;1.53;0.63;;;8.80;99.90;;;;;;5053276;28;20309;-85
2023/04/26 09:31:46;;;;;;;0.30;0.30;;;9.10;99.90;;;;;;5054431;27;20217;-83
2023/04/26 09:34:13;;;;;;;3.93;0.93;;;9.30;99.90;;;;;;5050468;28;21313;-84
2023/04/26 09:36:46;;;;;;;0.43;0.43;;;9.50;99.90;;;;;;5053086;28;20222;-83
2023/04/26 09:39:12;;;;;;;0.53;0.30;;;9.90;99.90;;;;;;5049660;27;20235;-84
2023/04/26 09:41:44;;;;;;;0.83;0.83;;;10.00;99.90;;;;;;5054042;28;20281;-84
2023/04/26 09:44:23;;;;;;;0.50;0.50;;;9.60;99.90;;;;;;5051612;28;20242;-83
2023/04/26 09:47:03;;;;;;;0.60;0.60;;;9.20;99.90;;;;;;5053729;28;20670;-84
2023/04/26 09:49:31;;;;;;;0.40;0.40;;;9.30;99.90;;;;;;5053401;28;20221;-83
2023/04/26 09:52:02;;;;;;;0.27;0.27;;;9.20;99.90;;;;;;5051772;28;20697;-83
2023/04/26 09:54:47;;;;;;;1.13;0.57;;;9.40;99.90;;;;;;5055150;27;20228;-83
2023/04/26 09:57:15;;;;;;;0.20;0.20;;;9.30;99.90;;;;;;5054641;28;20237;-84
2023/04/26 09:59:52;;;;;;;0.60;0.50;;;9.70;99.90;;;;;;5052769;28;20175;-83
2023/04/26 10:02:28;;;;;;;2.27;0.27;;;9.60;99.90;;;;;;5051026;28;20640;-83
2023/04/26 10:04:55;;;;;;;0.67;0.67;;;9.60;99.90;;;;;;5043278;28;20247;-84
2023/04/26 10:07:24;;;;;;;0.97;0.57;;;10.10;99.90;;;;;;5053456;27;20236;-84
2023/04/26 10:09:50;;;;;;;1.80;0.73;;;10.60;99.90;;;;;;5053642;27;20248;-83
2023/04/26 10:12:18;;;;;;;0.40;0.40;;;10.90;99.90;;;;;;5052269;28;20281;-84
2023/04/26 10:14:45;;;;;;;0.57;0.57;;;10.90;99.90;;;;;;5053090;28;20540;-83
2023/04/26 10:17:12;;;;;;;2.17;0.70;;;11.00;99.90;;;;;;5049757;28;20269;-82
2023/04/26 10:19:40;;;;;;;0.70;0.70;;;11.60;99.90;;;;;;5034687;28;20222;-81
2023/04/26 10:22:20;;;;;;;1.03;0.50;;;11.70;99.90;;;;;;5049086;27;20648;-81
2023/04/26 10:24:47;;;;;;;0.80;0.80;;;12.00;99.90;;;;;;5046199;28;20438;-82
2023/04/26 10:27:13;;;;;;;0.30;0.30;;;11.90;99.90;;;;;;5050538;27;20221;-82
2023/04/26 10:29:54;;;;;;;0.30;0.30;;;11.90;99.90;;;;;;5053575;28;20197;-81
2023/04/26 10:32:21;;;;;;;0.30;0.30;;;11.80;99.90;;;;;;5050378;28;20296;-81
2023/04/26 10:35:11;;;;;;;1.73;0.70;;;11.70;99.90;;;;;;5045078;28;20229;-81
2023/04/26 10:37:57;;;;;;;0.50;0.50;;;12.30;99.90;;;;;;5046908;28;20222;-81
2023/04/26 10:40:29;;;;;;;1.80;0.50;;;12.80;99.90;;;;;;5047275;28;20214;-82
2023/04/26 10:43:15;;;;;;;0.13;0.13;;;12.30;99.90;;;;;;5045428;28;20226;-81
2023/04/26 10:45:42;;;;;;;2.67;1.00;;;11.10;99.90;;;;;;5039839;28;20233;-81
2023/04/26 10:48:21;;;;;;;0.53;0.53;;;10.80;99.90;;;;;;5039666;27;20719;-80
2023/04/26 10:51:07;;;;;;;5.40;0.60;;;11.50;99.90;;;;;;5044956;28;20198;-82
2023/04/26 10:53:45;;;;;;;3.07;1.20;;;11.90;99.90;;;;;;5036956;28;20314;-79
2023/04/26 10:56:23;;;;;;;1.17;0.33;;;12.10;99.90;;;;;;5038551;28;20229;-80
2023/04/26 10:59:06;;;;;;;0.30;0.30;;;12.20;99.90;;;;;;5040506;28;20393;-80
2023/04/26 11:01:32;;;;;;;2.53;1.00;;;11.20;99.90;;;;;;5047264;28;20258;-80
2023/04/26 11:03:58;;;;;;;0.60;0.60;;;11.00;99.90;;;;;;5042313;28;20236;-80
2023/04/26 11:06:56;;;;;;;0.50;0.50;;;10.90;99.90;;;;;;5040968;28;20718;-80
2023/04/26 11:09:36;;;;;;;1.63;1.07;;;10.50;99.90;;;;;;5048145;28;20209;-81
2023/04/26 11:12:09;;;;;;;3.47;1.63;;;10.40;99.90;;;;;;5047161;27;20182;-80
2023/04/26 11:14:35;;;;;;;0.80;0.43;;;10.70;99.90;;;;;;5077838;27;20222;-81
2023/04/26 11:17:05;;;;;;;1.50;0.50;;;10.60;99.90;;;;;;5045715;27;20315;-80
2023/04/26 11:19:34;;;;;;;0.40;0.40;;;10.40;99.90;;;;;;5042196;28;20271;-80
2023/04/26 11:22:01;;;;;;;0.40;0.40;;;10.30;99.90;;;;;;5047906;28;20225;-80
2023/04/26 11:24:31;;;;;;;0.67;0.67;;;10.20;99.90;;;;;;5046157;28;20241;-81
2023/04/26 11:26:58;;;;;;;2.40;0.63;;;10.00;99.90;;;;;;5058672;28;20198;-84
2023/04/26 11:29:24;;;;;;;0.30;0.30;;;9.80;99.90;;;;;;5044195;28;20181;-82
2023/04/26 11:31:54;;;;;;;0.40;0.40;;;9.90;99.90;;;;;;5048489;28;20579;-82
2023/04/26 11:34:22;;;;;;;0.53;0.50;;;9.90;99.90;;;;;;5041599;28;20668;-84
2023/04/26 11:36:48;;;;;;;2.40;2.20;;;9.80;99.90;;;;;;5046932;28;20503;-84
2023/04/26 11:39:14;;;;;;;0.20;0.20;;;10.20;99.90;;;;;;5050290;28;20225;-82
2023/04/26 11:41:40;;;;;;;0.30;0.30;;;10.00;99.90;;;;;;5052851;28;20557;-82
2023/04/26 11:44:05;;;;;;;0.60;0.60;;;10.10;99.90;;;;;;5053931;28;20760;-82
2023/04/26 11:46:31;;;;;;;1.93;0.57;;;10.00;99.90;;;;;;5051895;28;20286;-83
2023/04/26 11:48:57;;;;;;;2.00;0.57;;;10.40;99.90;;;;;;5043551;28;20218;-83
2023/04/26 11:51:24;;;;;;;2.47;0.63;;;10.50;99.90;;;;;;5051323;28;20217;-83
2023/04/26 11:53:50;;;;;;;1.50;0.53;;;10.60;99.90;;;;;;5049953;27;20197;-82
2023/04/26 11:56:20;;;;;;;1.37;0.50;;;11.00;99.90;;;;;;5049334;28;20199;-84
2023/04/26 11:58:51;;;;;;;6.90;0.63;;;10.90;99.90;;;;;;5041871;28;21298;-82
2023/04/26 12:01:24;;;;;;;0.57;0.57;;;11.20;99.90;;;;;;5046877;28;20738;-83
2023/04/26 12:03:55;;;;;;;0.60;0.60;;;11.20;99.90;;;;;;5044362;28;20245;-83
2023/04/26 12:06:40;;;;;;;0.77;0.77;;;11.50;99.90;;;;;;5050066;28;20287;-83
2023/04/26 12:09:08;;;;;;;2.40;0.70;;;11.30;99.90;;;;;;5084308;27;20662;-84
2023/04/26 12:11:34;;;;;;;0.43;0.43;;;11.20;99.90;;;;;;5040462;28;20197;-82
2023/04/26 12:14:00;;;;;;;0.30;0.30;;;11.50;99.90;;;;;;5052098;28;20224;-83
2023/04/26 12:16:26;;;;;;;0.37;0.30;;;10.70;99.90;;;;;;5048598;27;20241;-84
2023/04/26 12:18:53;;;;;;;0.50;0.50;;;9.80;99.90;;;;;;5051116;27;20566;-83
2023/04/26 12:21:19;;;;;;;0.30;0.30;;;8.60;99.90;;;;;;5047246;28;20568;-82
2023/04/26 12:23:48;;;;;;;2.50;1.20;;;8.30;99.90;;;;;;5052812;28;20192;-82
2023/04/26 12:26:14;;;;;;;0.83;0.20;;;8.30;99.90;;;;;;5053111;28;20260;-83
2023/04/26 12:28:40;;;;;;;0.30;0.30;;;8.00;99.90;;;;;;5053839;27;20229;-82
2023/04/26 12:31:07;;;;;;;0.50;0.50;;;8.00;99.90;;;;;;5052707;28;20683;-82
2023/04/26 12:33:33;;;;;;;0.40;0.40;;;7.90;99.90;;;;;;5050760;28;20218;-83
2023/04/26 12:36:10;;;;;;;0.80;0.80;;;8.10;99.90;;;;;;5053155;28;20658;-82
2023/04/26 12:38:37;;;;;;;0.50;0.50;;;8.00;99.90;;;;;;5052173;28;20188;-82
2023/04/26 12:41:03;;;;;;;0.30;0.30;;;7.80;99.90;;;;;;5057977;28;20308;-82
2023/04/26 12:43:29;;;;;;;0.50;0.50;;;8.10;99.90;;;;;;5053613;28;20224;-82
2023/04/26 12:45:55;;;;;;;0.67;0.57;;;8.10;99.90;;;;;;5041291;28;20237;-83
2023/04/26 12:48:21;;;;;;;3.23;0.67;;;8.30;99.90;;;;;;5046724;28;20774;-81
2023/04/26 12:50:46;;;;;;;0.80;0.80;;;8.50;99.90;;;;;;5044264;28;20266;-84
2023/04/26 12:53:12;;;;;;;0.20;0.20;;;8.90;99.90;;;;;;5046096;28;20220;-82
2023/04/26 12:55:39;;;;;;;0.57;0.57;;;9.00;99.90;;;;;;5047679;28;20277;-82
2023/04/26 12:58:04;;;;;;;0.43;0.43;;;9.10;99.90;;;;;;5047667;27;20260;-82